Terminal Aerodrome Forecast
Issued by NWS

Home | Current Version | Previous Version | Text Only | Print | Product List | Glossary On
Versions: 1 2 3 4 5 6 7 8 9 10 11 12 13 14 15 16 17
000
FTUS41 KPBZ 211735
TAFZZV
TAF
KZZV 211735Z 2118/2218 21009KT P6SM BKN250
     FM220700 20004KT 5SM BR VCSH OVC040
     FM221000 18004KT 3SM BR OVC015
     FM221200 18004KT 3SM BR BKN008
     FM221500 19004KT P6SM BKN015=

USA.gov is the U.S. government's official web portal to all federal, state and local government web resources and services.